Time;durP1;ratioP1;P1;durP2;ratioP2;P2;SDS_P1;SDS_P2;PMS_P1;PMS_P2;Temp;Humidity;BMP_temperature;BMP_pressure;BME280_temperature;BME280_humidity;BME280_pressure;Samples;Min_cycle;Max_cycle;Signal;HPM_P1;HPM_P2
2022/11/26 00:02:23;;;;;;;;;;;5.80;73.30;;;;;;5043955;27;89281;-40
2022/11/26 00:04:49;;;;;;;;;;;5.80;73.30;;;;;;5044012;28;88103;-40
2022/11/26 00:07:17;;;;;;;;;;;5.80;73.30;;;;;;5044457;28;87116;-40
2022/11/26 00:09:42;;;;;;;;;;;5.80;73.20;;;;;;5044370;28;87511;-40
2022/11/26 00:12:15;;;;;;;;;;;5.80;73.30;;;;;;5044464;28;87355;-39
2022/11/26 00:14:41;;;;;;;;;;;5.80;73.30;;;;;;5044226;28;87078;-39
2022/11/26 00:17:08;;;;;;;;;;;5.70;73.30;;;;;;5046794;27;87277;-39
2022/11/26 00:19:33;;;;;;;;;;;5.70;73.30;;;;;;5043482;28;88032;-39
2022/11/26 00:21:59;;;;;;;;;;;5.70;73.30;;;;;;5044063;28;88342;-39
2022/11/26 00:24:26;;;;;;;;;;;5.70;73.40;;;;;;5043823;28;88006;-39
2022/11/26 00:26:51;;;;;;;;;;;5.70;73.30;;;;;;5043932;28;87031;-39
2022/11/26 00:29:17;;;;;;;;;;;5.70;73.80;;;;;;5044149;27;87309;-40
2022/11/26 00:31:42;;;;;;;;;;;5.70;73.20;;;;;;5043509;28;88172;-39
2022/11/26 00:34:08;;;;;;;;;;;5.70;73.20;;;;;;5044085;28;86956;-39
2022/11/26 00:36:33;;;;;;;;;;;5.60;73.30;;;;;;5044441;28;87246;-39
2022/11/26 00:39:05;;;;;;;;;;;5.70;73.30;;;;;;5046238;28;89260;-39
2022/11/26 00:41:32;;;;;;;;;;;5.60;73.30;;;;;;5043580;28;88396;-39
2022/11/26 00:43:58;;;;;;;;;;;5.60;73.30;;;;;;5042684;28;88907;-39
2022/11/26 00:46:23;;;;;;;;;;;5.60;73.40;;;;;;5043274;28;87124;-39
2022/11/26 00:48:49;;;;;;;;;;;5.60;73.30;;;;;;5042726;27;87563;-39
2022/11/26 00:51:22;;;;;;;;;;;5.60;73.20;;;;;;5043009;28;87826;-39
2022/11/26 00:53:48;;;;;;;;;;;5.60;73.20;;;;;;5043766;28;87063;-40
2022/11/26 00:56:17;;;;;;;;;;;5.60;73.20;;;;;;5043640;27;87436;-39
2022/11/26 00:58:43;;;;;;;;;;;5.50;73.30;;;;;;5042682;28;89581;-39
2022/11/26 01:01:10;;;;;;;;;;;5.50;73.30;;;;;;5046759;28;86428;-39
2022/11/26 01:03:35;;;;;;;;;;;5.50;73.50;;;;;;5043076;28;87875;-39
2022/11/26 01:06:01;;;;;;;;;;;5.50;73.40;;;;;;5043374;28;87148;-40
2022/11/26 01:08:31;;;;;;;;;;;5.50;73.40;;;;;;5042969;28;88896;-40
2022/11/26 01:10:58;;;;;;;;;;;5.50;73.40;;;;;;5042934;28;87934;-39
2022/11/26 01:13:23;;;;;;;;;;;5.50;73.60;;;;;;5042892;28;87142;-39
2022/11/26 01:15:49;;;;;;;;;;;5.50;73.40;;;;;;5043401;27;87383;-40
2022/11/26 01:18:16;;;;;;;;;;;5.50;73.40;;;;;;5042884;28;87202;-39
2022/11/26 01:20:42;;;;;;;;;;;5.50;73.20;;;;;;5046065;28;87110;-39
2022/11/26 01:23:08;;;;;;;;;;;5.50;73.20;;;;;;5042974;28;88008;-40
2022/11/26 01:25:34;;;;;;;;;;;5.40;73.30;;;;;;5043540;28;86388;-40
2022/11/26 01:27:59;;;;;;;;;;;5.40;73.20;;;;;;5043007;28;86990;-39
2022/11/26 01:30:26;;;;;;;;;;;5.40;73.10;;;;;;5042654;28;87569;-39
2022/11/26 01:32:52;;;;;;;;;;;5.40;73.20;;;;;;5042370;28;88049;-39
2022/11/26 01:35:19;;;;;;;;;;;5.40;73.10;;;;;;5042959;27;88225;-39
2022/11/26 01:37:45;;;;;;;;;;;5.40;73.40;;;;;;5042458;28;88478;-39
2022/11/26 01:40:29;;;;;;;;;;;5.40;73.40;;;;;;5043080;28;87179;-40
2022/11/26 01:43:00;;;;;;;;;;;5.40;73.40;;;;;;5045416;27;89101;-39
2022/11/26 01:45:25;;;;;;;;;;;5.40;73.40;;;;;;5042612;28;86919;-39
2022/11/26 01:47:51;;;;;;;;;;;5.30;73.30;;;;;;5043011;28;87466;-39
2022/11/26 01:50:32;;;;;;;;;;;5.40;73.30;;;;;;5042746;28;87577;-39
2022/11/26 01:53:05;;;;;;;;;;;5.30;73.30;;;;;;5042595;28;87229;-39
2022/11/26 01:55:35;;;;;;;;;;;5.30;73.30;;;;;;5042735;28;87246;-39
2022/11/26 01:58:01;;;;;;;;;;;5.30;73.30;;;;;;5041623;28;88868;-39
2022/11/26 02:00:27;;;;;;;;;;;5.30;73.40;;;;;;5045138;27;86949;-39
2022/11/26 02:02:53;;;;;;;;;;;5.30;73.20;;;;;;5049464;28;86979;-39
2022/11/26 02:05:22;;;;;;;;;;;5.30;73.30;;;;;;5051767;28;88305;-39
2022/11/26 02:07:48;;;;;;;;;;;5.30;73.20;;;;;;5048787;28;90136;-39
2022/11/26 02:10:14;;;;;;;;;;;5.30;73.10;;;;;;5049098;28;87979;-39
2022/11/26 02:12:40;;;;;;;;;;;5.20;73.20;;;;;;5049363;28;87094;-39
2022/11/26 02:15:06;;;;;;;;;;;5.30;73.10;;;;;;5049855;27;86488;-39
2022/11/26 02:17:34;;;;;;;;;;;5.30;73.20;;;;;;5048910;28;88237;-39
2022/11/26 02:20:06;;;;;;;;;;;5.20;73.10;;;;;;5049168;28;86905;-39
2022/11/26 02:22:31;;;;;;;;;;;5.20;73.10;;;;;;5048382;27;87931;-39
2022/11/26 02:25:03;;;;;;;;;;;5.20;73.20;;;;;;5049060;28;87899;-39
2022/11/26 02:27:48;;;;;;;;;;;5.10;73.10;;;;;;5051982;28;87169;-39
2022/11/26 02:30:15;;;;;;;;;;;5.20;73.30;;;;;;5047431;28;88133;-39
2022/11/26 02:32:59;;;;;;;;;;;5.20;73.20;;;;;;5048918;28;87091;-39
2022/11/26 02:35:41;;;;;;;;;;;5.20;73.30;;;;;;5048675;27;88683;-39
2022/11/26 02:38:09;;;;;;;;;;;5.20;73.20;;;;;;5048592;28;87951;-39
2022/11/26 02:40:35;;;;;;;;;;;5.10;73.20;;;;;;5049085;28;86383;-39
2022/11/26 02:43:00;;;;;;;;;;;5.20;73.10;;;;;;5049045;28;86949;-39
2022/11/26 02:45:46;;;;;;;;;;;5.20;73.10;;;;;;5047957;28;87991;-39
2022/11/26 02:48:18;;;;;;;;;;;5.10;73.10;;;;;;5039715;28;87971;-39
2022/11/26 02:50:49;;;;;;;;;;;5.10;73.20;;;;;;5051463;27;88372;-39
2022/11/26 02:53:16;;;;;;;;;;;5.10;73.20;;;;;;5048725;28;87083;-39
2022/11/26 02:55:44;;;;;;;;;;;5.10;73.30;;;;;;5048679;28;87532;-39
2022/11/26 02:58:10;;;;;;;;;;;5.00;73.20;;;;;;5048370;28;88287;-39
2022/11/26 03:00:37;;;;;;;;;;;5.10;73.10;;;;;;5048686;28;87157;-39
2022/11/26 03:03:21;;;;;;;;;;;5.00;73.00;;;;;;5048447;28;87557;-39
2022/11/26 03:05:47;;;;;;;;;;;5.00;73.00;;;;;;5048524;28;88542;-39
2022/11/26 03:08:13;;;;;;;;;;;5.00;73.20;;;;;;5048470;28;87128;-39
2022/11/26 03:10:38;;;;;;;;;;;5.00;73.40;;;;;;5050998;28;87069;-39
2022/11/26 03:13:04;;;;;;;;;;;5.00;73.10;;;;;;5044044;27;88101;-39
2022/11/26 03:15:29;;;;;;;;;;;5.00;73.10;;;;;;5045279;28;88459;-39
2022/11/26 03:17:54;;;;;;;;;;;5.00;73.10;;;;;;5044802;28;87986;-39
2022/11/26 03:20:20;;;;;;;;;;;5.00;73.20;;;;;;5045206;28;87105;-39
2022/11/26 03:22:45;;;;;;;;;;;5.00;73.10;;;;;;5045249;28;87344;-39
2022/11/26 03:25:11;;;;;;;;;;;4.90;73.20;;;;;;5044392;28;88136;-39
2022/11/26 03:27:37;;;;;;;;;;;4.90;73.10;;;;;;5045200;28;88205;-39
2022/11/26 03:30:03;;;;;;;;;;;4.90;73.10;;;;;;5045347;27;88972;-39
2022/11/26 03:32:29;;;;;;;;;;;4.90;73.20;;;;;;5047304;28;87938;-39
2022/11/26 03:34:54;;;;;;;;;;;4.90;73.10;;;;;;5044916;28;87015;-39
2022/11/26 03:37:20;;;;;;;;;;;4.80;73.10;;;;;;5043739;28;88258;-39
2022/11/26 03:39:45;;;;;;;;;;;4.90;72.90;;;;;;5044616;28;87176;-39
2022/11/26 03:42:11;;;;;;;;;;;4.90;73.10;;;;;;5044876;28;87297;-39
2022/11/26 03:44:36;;;;;;;;;;;4.90;72.90;;;;;;5044012;28;87189;-39
2022/11/26 03:47:02;;;;;;;;;;;4.90;73.00;;;;;;5044723;28;87086;-39
2022/11/26 03:49:27;;;;;;;;;;;4.80;72.90;;;;;;5044810;28;87530;-39
2022/11/26 03:51:53;;;;;;;;;;;4.80;72.90;;;;;;5044149;28;87995;-39
2022/11/26 03:54:18;;;;;;;;;;;4.80;72.70;;;;;;5047975;28;86491;-39
2022/11/26 03:56:44;;;;;;;;;;;4.80;72.90;;;;;;5044429;28;88210;-39
2022/11/26 03:59:09;;;;;;;;;;;4.80;73.00;;;;;;5044837;28;87370;-39
2022/11/26 04:01:35;;;;;;;;;;;4.80;73.10;;;;;;5043971;27;87693;-39
2022/11/26 04:04:00;;;;;;;;;;;4.70;73.00;;;;;;5044107;28;87998;-39
2022/11/26 04:06:26;;;;;;;;;;;4.70;73.00;;;;;;5044510;28;87452;-39
2022/11/26 04:08:51;;;;;;;;;;;4.70;73.10;;;;;;5044283;28;86974;-39
2022/11/26 04:11:17;;;;;;;;;;;4.70;73.10;;;;;;5043747;28;88052;-39
2022/11/26 04:13:42;;;;;;;;;;;4.60;73.10;;;;;;5044379;28;87072;-39
2022/11/26 04:16:08;;;;;;;;;;;4.60;73.10;;;;;;5046819;28;87400;-39
2022/11/26 04:18:34;;;;;;;;;;;4.60;73.20;;;;;;5044856;28;86293;-39
2022/11/26 04:20:59;;;;;;;;;;;4.60;73.10;;;;;;5044219;27;87110;-39
2022/11/26 04:23:25;;;;;;;;;;;4.60;73.10;;;;;;5043598;27;88031;-39
2022/11/26 04:25:50;;;;;;;;;;;4.60;73.20;;;;;;5043488;28;88065;-39
2022/11/26 04:28:16;;;;;;;;;;;4.60;73.20;;;;;;5044129;28;88354;-39
2022/11/26 04:30:42;;;;;;;;;;;4.60;73.30;;;;;;5043463;28;87347;-39
2022/11/26 04:33:07;;;;;;;;;;;4.50;73.20;;;;;;5044133;28;87149;-39
2022/11/26 04:35:33;;;;;;;;;;;4.50;73.20;;;;;;5044013;27;87341;-39
2022/11/26 04:37:58;;;;;;;;;;;4.50;73.20;;;;;;5046504;28;88710;-39
2022/11/26 04:40:24;;;;;;;;;;;4.50;73.10;;;;;;5043863;27;87382;-39
2022/11/26 04:42:49;;;;;;;;;;;4.50;73.10;;;;;;5043978;28;86468;-39
2022/11/26 04:45:15;;;;;;;;;;;4.50;73.10;;;;;;5043395;28;87140;-39
2022/11/26 04:47:40;;;;;;;;;;;4.50;73.10;;;;;;5043483;28;87098;-39
2022/11/26 04:50:06;;;;;;;;;;;4.50;73.10;;;;;;5042505;28;90386;-39
2022/11/26 04:52:32;;;;;;;;;;;4.50;73.10;;;;;;5043439;28;87085;-39
2022/11/26 04:54:57;;;;;;;;;;;4.50;73.10;;;;;;5043293;27;88660;-39
2022/11/26 04:57:22;;;;;;;;;;;4.50;73.10;;;;;;5043532;28;87857;-39
2022/11/26 04:59:48;;;;;;;;;;;4.50;73.10;;;;;;5046651;28;87147;-39
2022/11/26 05:02:13;;;;;;;;;;;4.40;73.00;;;;;;5043105;28;87243;-39
2022/11/26 05:04:39;;;;;;;;;;;4.40;73.00;;;;;;5043634;28;87129;-39
2022/11/26 05:07:04;;;;;;;;;;;4.40;73.10;;;;;;5043918;28;86883;-39
2022/11/26 05:09:30;;;;;;;;;;;4.40;73.10;;;;;;5042942;28;88179;-39
2022/11/26 05:11:56;;;;;;;;;;;4.40;73.10;;;;;;5043270;28;87141;-39
2022/11/26 05:14:21;;;;;;;;;;;4.40;73.10;;;;;;5042851;28;88027;-39
2022/11/26 05:16:46;;;;;;;;;;;4.40;73.10;;;;;;5042908;28;88153;-39
2022/11/26 05:19:12;;;;;;;;;;;4.40;73.10;;;;;;5046328;28;87164;-39
2022/11/26 05:21:37;;;;;;;;;;;4.40;73.10;;;;;;5043051;28;88020;-39
2022/11/26 05:24:03;;;;;;;;;;;4.30;73.00;;;;;;5043038;28;87004;-39
2022/11/26 05:26:29;;;;;;;;;;;4.30;72.90;;;;;;5043039;27;87398;-39
2022/11/26 05:28:54;;;;;;;;;;;4.30;72.90;;;;;;5042615;28;88103;-39
2022/11/26 05:31:19;;;;;;;;;;;4.30;73.10;;;;;;5043738;28;86446;-39
2022/11/26 05:33:45;;;;;;;;;;;4.30;72.90;;;;;;5043085;28;86991;-39
2022/11/26 05:36:10;;;;;;;;;;;4.30;72.90;;;;;;5041863;27;88729;-39
2022/11/26 05:38:36;;;;;;;;;;;4.30;72.90;;;;;;5042523;28;87968;-39
2022/11/26 05:41:02;;;;;;;;;;;4.30;73.00;;;;;;5045207;28;88841;-39
2022/11/26 05:43:27;;;;;;;;;;;4.30;73.00;;;;;;5042893;28;87134;-39
2022/11/26 05:45:53;;;;;;;;;;;4.30;73.10;;;;;;5042111;27;88703;-39
2022/11/26 05:48:18;;;;;;;;;;;4.20;73.00;;;;;;5042557;28;88078;-39
2022/11/26 05:50:44;;;;;;;;;;;4.20;73.00;;;;;;5042626;28;87043;-39
2022/11/26 05:53:09;;;;;;;;;;;4.20;73.00;;;;;;5043175;28;87369;-39
2022/11/26 05:55:35;;;;;;;;;;;4.20;73.00;;;;;;5042849;28;86456;-39
2022/11/26 05:58:00;;;;;;;;;;;4.20;72.90;;;;;;5042809;28;87161;-39
2022/11/26 06:00:26;;;;;;;;;;;4.20;73.00;;;;;;5042484;28;86970;-39
2022/11/26 06:02:51;;;;;;;;;;;4.20;73.00;;;;;;5044592;28;88124;-39
2022/11/26 06:05:17;;;;;;;;;;;4.20;73.00;;;;;;5042745;28;88262;-39
2022/11/26 06:07:42;;;;;;;;;;;4.20;72.90;;;;;;5042212;28;88107;-39
2022/11/26 06:10:08;;;;;;;;;;;4.20;72.90;;;;;;5042269;28;88076;-39
2022/11/26 06:12:34;;;;;;;;;;;4.20;72.90;;;;;;5042545;28;87426;-39
2022/11/26 06:15:00;;;;;;;;;;;4.10;72.80;;;;;;5042085;28;87959;-39
2022/11/26 06:17:25;;;;;;;;;;;4.10;72.90;;;;;;5042381;28;87245;-39
2022/11/26 06:19:51;;;;;;;;;;;4.10;72.90;;;;;;5042880;27;87135;-39
2022/11/26 06:22:16;;;;;;;;;;;4.10;72.80;;;;;;5042179;28;88043;-39
2022/11/26 06:24:42;;;;;;;;;;;4.10;73.40;;;;;;5045580;28;87177;-39
2022/11/26 06:27:07;;;;;;;;;;;4.10;72.80;;;;;;5041026;28;89000;-39
2022/11/26 06:29:33;;;;;;;;;;;4.10;72.80;;;;;;5042492;28;86954;-39
2022/11/26 06:31:59;;;;;;;;;;;4.10;72.80;;;;;;5042443;28;87702;-39
2022/11/26 06:34:24;;;;;;;;;;;4.10;72.80;;;;;;5041795;28;87925;-39
2022/11/26 06:36:50;;;;;;;;;;;4.10;72.70;;;;;;5042208;28;87057;-39
2022/11/26 06:39:15;;;;;;;;;;;4.10;72.70;;;;;;5042136;27;88673;-39
2022/11/26 06:41:41;;;;;;;;;;;4.10;72.70;;;;;;5041765;28;88222;-39
2022/11/26 06:44:06;;;;;;;;;;;4.10;72.70;;;;;;5042181;28;86422;-39
2022/11/26 06:46:35;;;;;;;;;;;4.10;72.70;;;;;;5044818;27;87068;-39
2022/11/26 06:49:04;;;;;;;;;;;4.10;72.60;;;;;;5045524;28;87502;-39
2022/11/26 06:51:30;;;;;;;;;;;4.10;72.50;;;;;;5044744;28;88027;-39
2022/11/26 06:53:55;;;;;;;;;;;4.10;73.10;;;;;;5045148;28;88199;-39
2022/11/26 06:56:21;;;;;;;;;;;4.10;72.50;;;;;;5045299;28;87212;-39
2022/11/26 06:58:47;;;;;;;;;;;4.00;72.50;;;;;;5045609;28;87087;-39
2022/11/26 07:01:16;;;;;;;;;;;4.00;72.60;;;;;;5044857;28;88218;-39
2022/11/26 07:03:42;;;;;;;;;;;4.00;72.60;;;;;;5045525;28;87101;-39
2022/11/26 07:06:18;;;;;;;;;;;4.00;72.70;;;;;;5045534;28;87578;-39
2022/11/26 07:08:43;;;;;;;;;;;4.00;72.60;;;;;;5047847;28;87276;-39
2022/11/26 07:11:09;;;;;;;;;;;4.00;72.70;;;;;;5045327;28;87002;-39
2022/11/26 07:13:35;;;;;;;;;;;4.00;72.70;;;;;;5044606;28;89315;-39
2022/11/26 07:16:01;;;;;;;;;;;4.00;72.70;;;;;;5044437;28;88034;-39
2022/11/26 07:18:27;;;;;;;;;;;4.00;72.60;;;;;;5045070;28;88313;-39
2022/11/26 07:20:52;;;;;;;;;;;4.00;72.60;;;;;;5044759;28;87067;-39
2022/11/26 07:23:18;;;;;;;;;;;4.00;72.60;;;;;;5044940;28;87119;-39
2022/11/26 07:25:43;;;;;;;;;;;4.00;72.70;;;;;;5045088;28;87006;-39
2022/11/26 07:28:09;;;;;;;;;;;4.00;72.60;;;;;;5047416;28;88241;-39
2022/11/26 07:30:34;;;;;;;;;;;4.00;72.70;;;;;;5045050;28;87539;-39
2022/11/26 07:33:00;;;;;;;;;;;4.00;72.70;;;;;;5044986;28;86465;-39
2022/11/26 07:35:25;;;;;;;;;;;3.90;72.80;;;;;;5044824;28;87269;-39
2022/11/26 07:37:51;;;;;;;;;;;3.90;72.80;;;;;;5044796;28;87406;-39
2022/11/26 07:40:16;;;;;;;;;;;3.90;72.80;;;;;;5043466;28;90323;-39
2022/11/26 07:42:42;;;;;;;;;;;3.90;72.80;;;;;;5044761;28;87177;-39
2022/11/26 07:45:07;;;;;;;;;;;3.90;72.80;;;;;;5044192;28;87161;-39
2022/11/26 07:47:33;;;;;;;;;;;3.90;73.40;;;;;;5044408;28;87939;-39
2022/11/26 07:49:59;;;;;;;;;;;3.90;72.90;;;;;;5047469;28;87086;-40
2022/11/26 07:52:25;;;;;;;;;;;3.90;72.90;;;;;;5044088;28;87981;-39
2022/11/26 07:54:50;;;;;;;;;;;3.90;72.90;;;;;;5044342;28;87806;-39
2022/11/26 07:57:17;;;;;;;;;;;3.90;72.90;;;;;;5045060;28;86796;-39
2022/11/26 07:59:42;;;;;;;;;;;3.90;72.90;;;;;;5043357;28;89013;-39
2022/11/26 08:02:11;;;;;;;;;;;3.90;73.00;;;;;;5044530;28;87007;-39
2022/11/26 08:04:36;;;;;;;;;;;3.90;73.00;;;;;;5043678;27;87922;-39
2022/11/26 08:07:02;;;;;;;;;;;3.80;73.00;;;;;;5043995;28;87202;-39
2022/11/26 08:09:27;;;;;;;;;;;3.80;73.10;;;;;;5044113;28;86987;-39
2022/11/26 08:11:53;;;;;;;;;;;3.80;73.10;;;;;;5047018;28;87448;-39
2022/11/26 08:14:18;;;;;;;;;;;3.80;73.10;;;;;;5044354;28;87113;-39
2022/11/26 08:16:44;;;;;;;;;;;3.80;73.20;;;;;;5044465;28;87464;-39
2022/11/26 08:19:11;;;;;;;;;;;3.80;73.20;;;;;;5043610;28;88014;-39
2022/11/26 08:21:38;;;;;;;;;;;3.80;73.30;;;;;;5044380;28;86373;-39
2022/11/26 08:24:04;;;;;;;;;;;3.80;73.30;;;;;;5043666;27;88111;-39
2022/11/26 08:26:29;;;;;;;;;;;3.80;73.40;;;;;;5043483;28;89547;-39
2022/11/26 08:28:55;;;;;;;;;;;3.80;73.50;;;;;;5043490;28;88071;-39
2022/11/26 08:31:21;;;;;;;;;;;3.80;73.50;;;;;;5044042;27;89775;-39
2022/11/26 08:33:46;;;;;;;;;;;3.80;73.50;;;;;;5046763;28;88002;-40
2022/11/26 08:36:12;;;;;;;;;;;3.80;73.50;;;;;;5043652;27;87877;-39
2022/11/26 08:38:38;;;;;;;;;;;3.80;73.60;;;;;;5043611;28;87551;-39
2022/11/26 08:41:07;;;;;;;;;;;3.80;73.60;;;;;;5043709;28;87154;-39
2022/11/26 08:43:33;;;;;;;;;;;3.70;73.70;;;;;;5043786;28;87385;-39
2022/11/26 08:45:59;;;;;;;;;;;3.70;73.60;;;;;;5043669;28;87387;-39
2022/11/26 08:48:25;;;;;;;;;;;3.80;73.50;;;;;;5043877;28;87037;-39
2022/11/26 08:50:55;;;;;;;;;;;3.80;73.40;;;;;;5043571;27;87469;-39
2022/11/26 08:53:21;;;;;;;;;;;3.90;73.30;;;;;;5042173;28;89030;-39
2022/11/26 08:55:46;;;;;;;;;;;3.90;73.40;;;;;;5046717;28;87427;-39
2022/11/26 08:58:12;;;;;;;;;;;3.90;73.30;;;;;;5043351;28;88074;-39
2022/11/26 09:00:37;;;;;;;;;;;3.90;73.70;;;;;;5043731;28;87270;-39
2022/11/26 09:03:03;;;;;;;;;;;3.90;73.50;;;;;;5043655;28;87326;-39
2022/11/26 09:05:28;;;;;;;;;;;3.80;73.40;;;;;;5043234;28;87944;-39
2022/11/26 09:07:54;;;;;;;;;;;3.90;73.60;;;;;;5043116;28;87098;-39
2022/11/26 09:10:19;;;;;;;;;;;3.90;73.30;;;;;;5043180;27;87507;-39
2022/11/26 09:12:45;;;;;;;;;;;3.90;73.40;;;;;;5043256;28;87995;-39
2022/11/26 09:15:10;;;;;;;;;;;3.90;73.30;;;;;;5043502;28;87229;-39
2022/11/26 09:17:36;;;;;;;;;;;3.90;73.30;;;;;;5045337;28;87974;-39
2022/11/26 09:20:01;;;;;;;;;;;3.90;73.30;;;;;;5043266;28;87160;-39
2022/11/26 09:22:27;;;;;;;;;;;3.90;73.40;;;;;;5043361;28;87080;-40
2022/11/26 09:24:52;;;;;;;;;;;3.90;73.40;;;;;;5042744;28;88464;-39
2022/11/26 09:27:18;;;;;;;;;;;3.90;73.20;;;;;;5043245;28;87135;-39
2022/11/26 09:29:43;;;;;;;;;;;3.90;73.50;;;;;;5043040;28;87345;-39
2022/11/26 09:32:09;;;;;;;;;;;3.90;73.50;;;;;;5042609;28;87826;-39
2022/11/26 09:34:35;;;;;;;;;;;3.80;73.60;;;;;;5043746;28;86397;-39
2022/11/26 09:37:00;;;;;;;;;;;3.80;73.50;;;;;;5045546;27;87097;-39
2022/11/26 09:39:26;;;;;;;;;;;3.90;73.60;;;;;;5042439;28;87167;-39
2022/11/26 09:41:51;;;;;;;;;;;3.90;73.50;;;;;;5042520;27;87812;-39
2022/11/26 09:44:35;;;;;;;;;;;3.80;73.50;;;;;;5042027;28;87093;-39
2022/11/26 09:47:04;;;;;;;;;;;3.80;73.40;;;;;;5042415;28;87189;-39
2022/11/26 09:49:32;;;;;;;;;;;3.90;73.60;;;;;;5042899;27;87732;-39
2022/11/26 09:51:58;;;;;;;;;;;3.90;73.60;;;;;;5041905;28;87275;-39
2022/11/26 09:54:26;;;;;;;;;;;3.80;73.70;;;;;;5042777;28;87125;-39
2022/11/26 09:56:55;;;;;;;;;;;3.80;73.90;;;;;;5042727;28;87262;-39
2022/11/26 09:59:21;;;;;;;;;;;3.90;73.70;;;;;;5045503;28;86494;-39
2022/11/26 10:01:46;;;;;;;;;;;3.80;73.70;;;;;;5042676;27;87052;-39
2022/11/26 10:04:22;;;;;;;;;;;3.80;73.90;;;;;;5042242;28;87147;-39
2022/11/26 10:06:51;;;;;;;;;;;3.80;74.40;;;;;;5041769;28;88144;-39
2022/11/26 10:09:16;;;;;;;;;;;3.80;74.10;;;;;;5042664;28;88552;-39
2022/11/26 10:11:48;;;;;;;;;;;3.80;73.80;;;;;;5042198;28;87847;-39
2022/11/26 10:14:27;;;;;;;;;;;3.80;73.90;;;;;;5042397;28;87036;-39
2022/11/26 10:17:13;;;;;;;;;;;3.90;73.90;;;;;;5042446;28;89727;-39
2022/11/26 10:19:54;;;;;;;;;;;3.90;74.10;;;;;;5042092;27;87984;-39
2022/11/26 10:22:21;;;;;;;;;;;3.90;73.90;;;;;;5048015;27;87099;-39
2022/11/26 10:24:47;;;;;;;;;;;3.90;74.20;;;;;;5046076;28;87449;-39
2022/11/26 10:27:14;;;;;;;;;;;3.90;73.80;;;;;;5045975;28;87041;-39
2022/11/26 10:29:41;;;;;;;;;;;3.90;74.00;;;;;;5045965;27;87389;-39
2022/11/26 10:32:19;;;;;;;;;;;3.90;74.10;;;;;;5044789;28;88978;-39
2022/11/26 10:34:48;;;;;;;;;;;3.90;74.10;;;;;;5045986;28;87051;-39
2022/11/26 10:37:14;;;;;;;;;;;3.90;74.00;;;;;;5045690;28;88883;-39
2022/11/26 10:39:39;;;;;;;;;;;3.90;73.90;;;;;;5045431;28;88158;-39
2022/11/26 10:42:18;;;;;;;;;;;4.00;74.30;;;;;;5045120;28;87192;-39
2022/11/26 10:44:44;;;;;;;;;;;3.90;74.40;;;;;;5047616;27;87228;-39
2022/11/26 10:47:22;;;;;;;;;;;3.90;74.20;;;;;;5045674;28;87414;-39
2022/11/26 10:49:48;;;;;;;;;;;3.90;74.20;;;;;;5045842;27;88659;-39
2022/11/26 10:52:15;;;;;;;;;;;3.90;74.30;;;;;;5045024;28;87150;-39
2022/11/26 10:54:40;;;;;;;;;;;3.90;74.20;;;;;;5045250;28;87212;-39
2022/11/26 10:57:09;;;;;;;;;;;3.90;74.50;;;;;;5044794;28;88009;-39
2022/11/26 10:59:39;;;;;;;;;;;4.00;74.10;;;;;;5045089;28;88304;-39
2022/11/26 11:02:23;;;;;;;;;;;4.00;74.20;;;;;;5045232;28;87085;-39
2022/11/26 11:04:51;;;;;;;;;;;4.00;74.10;;;;;;5045631;27;87303;-39
2022/11/26 11:07:46;;;;;;;;;;;4.00;74.10;;;;;;5047560;28;87936;-39
2022/11/26 11:10:11;;;;;;;;;;;4.00;74.40;;;;;;5035558;27;87093;-39
2022/11/26 11:12:41;;;;;;;;;;;4.10;74.20;;;;;;5044544;28;89188;-39
2022/11/26 11:15:19;;;;;;;;;;;4.10;74.10;;;;;;5045770;28;86931;-39
2022/11/26 11:17:45;;;;;;;;;;;4.10;73.90;;;;;;5044954;27;88932;-39
2022/11/26 11:20:13;;;;;;;;;;;4.10;74.30;;;;;;5044857;28;88007;-39
2022/11/26 11:22:39;;;;;;;;;;;4.10;74.20;;;;;;5044304;28;88321;-39
2022/11/26 11:25:05;;;;;;;;;;;4.10;74.10;;;;;;5045114;28;88521;-39
2022/11/26 11:27:40;;;;;;;;;;;4.20;73.90;;;;;;5044514;28;89409;-39
2022/11/26 11:30:06;;;;;;;;;;;4.20;74.70;;;;;;5047367;28;87036;-39
2022/11/26 11:32:36;;;;;;;;;;;4.30;73.80;;;;;;5043849;27;88464;-39
2022/11/26 11:35:20;;;;;;;;;;;4.20;74.10;;;;;;5044567;28;87234;-39
2022/11/26 11:37:47;;;;;;;;;;;4.30;74.00;;;;;;5044705;27;89066;-39
2022/11/26 11:40:14;;;;;;;;;;;4.30;73.90;;;;;;5044978;28;87367;-39
2022/11/26 11:42:39;;;;;;;;;;;4.30;73.70;;;;;;5044615;28;87654;-39
2022/11/26 11:45:17;;;;;;;;;;;4.30;74.10;;;;;;5044560;27;87844;-39
2022/11/26 11:47:46;;;;;;;;;;;4.30;74.00;;;;;;5043708;28;89028;-39
2022/11/26 11:50:18;;;;;;;;;;;4.30;74.00;;;;;;5047516;28;87075;-39
2022/11/26 11:52:52;;;;;;;;;;;4.30;73.80;;;;;;5043915;28;88094;-39
2022/11/26 11:55:26;;;;;;;;;;;4.30;74.00;;;;;;5044482;28;86969;-39
2022/11/26 11:57:58;;;;;;;;;;;4.30;74.20;;;;;;5044655;28;87381;-39
2022/11/26 12:00:30;;;;;;;;;;;4.40;74.00;;;;;;5044179;28;88075;-39
2022/11/26 12:03:01;;;;;;;;;;;4.40;74.00;;;;;;5044721;28;87229;-39
2022/11/26 12:05:30;;;;;;;;;;;4.40;74.20;;;;;;5045023;28;87358;-39
2022/11/26 12:07:58;;;;;;;;;;;4.40;74.20;;;;;;5043694;28;87996;-39
2022/11/26 12:10:27;;;;;;;;;;;4.40;74.30;;;;;;5044081;28;87109;-39
2022/11/26 12:12:57;;;;;;;;;;;4.40;74.30;;;;;;5046202;28;87875;-39
2022/11/26 12:15:28;;;;;;;;;;;4.40;74.30;;;;;;5044036;28;87100;-39
2022/11/26 12:18:03;;;;;;;;;;;4.40;74.20;;;;;;5044083;27;86962;-39
2022/11/26 12:20:31;;;;;;;;;;;4.40;74.20;;;;;;5043640;28;88335;-39
2022/11/26 12:22:59;;;;;;;;;;;4.40;74.00;;;;;;5043921;28;87074;-39
2022/11/26 12:25:32;;;;;;;;;;;4.50;74.00;;;;;;5043820;27;87387;-40
2022/11/26 12:27:59;;;;;;;;;;;4.50;74.00;;;;;;5043628;28;87014;-39
2022/11/26 12:30:35;;;;;;;;;;;4.50;74.10;;;;;;5044238;28;87355;-39
2022/11/26 12:33:03;;;;;;;;;;;4.50;73.90;;;;;;5043815;27;88432;-39
2022/11/26 12:35:38;;;;;;;;;;;4.50;74.10;;;;;;5046342;28;88228;-39
2022/11/26 12:38:06;;;;;;;;;;;4.50;74.00;;;;;;5043337;27;88577;-39
2022/11/26 12:40:41;;;;;;;;;;;4.50;74.10;;;;;;5043432;28;88055;-39
2022/11/26 12:43:12;;;;;;;;;;;4.50;74.20;;;;;;5043658;28;87146;-39
2022/11/26 12:45:48;;;;;;;;;;;4.50;74.20;;;;;;5043122;27;87180;-39
2022/11/26 12:48:19;;;;;;;;;;;4.50;74.30;;;;;;5043392;28;88038;-39
2022/11/26 12:50:46;;;;;;;;;;;4.50;74.00;;;;;;5043718;28;86964;-39
2022/11/26 12:53:30;;;;;;;;;;;4.60;74.10;;;;;;5043405;28;87417;-39
2022/11/26 12:55:56;;;;;;;;;;;4.60;74.20;;;;;;5043651;27;87078;-39
2022/11/26 12:58:26;;;;;;;;;;;4.60;74.20;;;;;;5046366;28;87240;-39
2022/11/26 13:00:53;;;;;;;;;;;4.60;74.00;;;;;;5042828;28;89123;-39
2022/11/26 13:03:22;;;;;;;;;;;4.60;74.10;;;;;;5042498;28;88045;-39
2022/11/26 13:05:48;;;;;;;;;;;4.60;74.10;;;;;;5043309;27;87418;-39
2022/11/26 13:08:25;;;;;;;;;;;4.60;74.10;;;;;;5043117;28;87886;-39
2022/11/26 13:11:09;;;;;;;;;;;4.60;74.40;;;;;;5043016;28;86994;-39
2022/11/26 13:13:46;;;;;;;;;;;4.60;74.30;;;;;;5043575;27;87357;-39
2022/11/26 13:16:33;;;;;;;;;;;4.60;74.30;;;;;;5042825;28;88609;-39
2022/11/26 13:19:03;;;;;;;;;;;4.60;74.10;;;;;;5042988;27;87631;-39
2022/11/26 13:21:47;;;;;;;;;;;4.60;74.10;;;;;;5045966;27;87425;-39
2022/11/26 13:24:18;;;;;;;;;;;4.60;74.40;;;;;;5043174;27;87173;-39
2022/11/26 13:27:13;;;;;;;;;;;4.60;74.50;;;;;;5043147;27;87488;-39
2022/11/26 13:29:47;;;;;;;;;;;4.60;74.50;;;;;;5032606;28;89138;-39
2022/11/26 13:32:25;;;;;;;;;;;4.70;74.60;;;;;;5042869;28;87022;-39
2022/11/26 13:35:00;;;;;;;;;;;4.70;74.20;;;;;;5042993;27;88039;-39
2022/11/26 13:37:29;;;;;;;;;;;4.70;74.60;;;;;;5042714;28;86976;-39
2022/11/26 13:40:03;;;;;;;;;;;4.80;74.00;;;;;;5042918;28;87179;-39
2022/11/26 13:42:47;;;;;;;;;;;4.70;74.20;;;;;;5045569;28;87244;-39
2022/11/26 13:45:12;;;;;;;;;;;4.70;74.20;;;;;;5042384;27;87539;-39
2022/11/26 13:47:50;;;;;;;;;;;4.70;74.40;;;;;;5043095;28;88759;-39
2022/11/26 13:50:38;;;;;;;;;;;4.70;74.20;;;;;;5042265;28;88195;-39
2022/11/26 13:53:09;;;;;;;;;;;4.70;74.30;;;;;;5042281;28;87098;-39
2022/11/26 13:55:55;;;;;;;;;;;4.80;74.20;;;;;;5041550;27;87917;-39
2022/11/26 13:58:25;;;;;;;;;;;4.80;74.20;;;;;;5042527;28;87933;-39
2022/11/26 14:00:50;;;;;;;;;;;4.80;74.10;;;;;;5042270;28;87149;-39
2022/11/26 14:03:39;;;;;;;;;;;4.80;74.40;;;;;;5042698;28;87040;-39
2022/11/26 14:06:05;;;;;;;;;;;4.80;74.20;;;;;;5045028;28;87705;-39
2022/11/26 14:08:32;;;;;;;;;;;4.80;74.20;;;;;;5042273;28;88650;-39
2022/11/26 14:10:57;;;;;;;;;;;4.80;74.30;;;;;;5042093;28;87908;-39
2022/11/26 14:13:23;;;;;;;;;;;4.80;74.30;;;;;;5043150;28;86397;-39
2022/11/26 14:15:50;;;;;;;;;;;4.80;74.40;;;;;;5042571;28;86998;-39
2022/11/26 14:18:16;;;;;;;;;;;4.80;74.20;;;;;;5042229;28;86967;-39
2022/11/26 14:21:05;;;;;;;;;;;4.80;74.30;;;;;;5041735;28;87959;-39
2022/11/26 14:23:40;;;;;;;;;;;4.80;74.20;;;;;;5035078;28;88993;-39
2022/11/26 14:26:17;;;;;;;;;;;4.80;74.30;;;;;;5041859;28;88173;-39
2022/11/26 14:28:42;;;;;;;;;;;4.90;74.20;;;;;;5045174;28;87034;-39
2022/11/26 14:31:19;;;;;;;;;;;4.80;74.40;;;;;;5042025;28;88195;-39
2022/11/26 14:33:45;;;;;;;;;;;4.80;74.10;;;;;;5042345;28;86892;-39
2022/11/26 14:36:21;;;;;;;;;;;4.80;74.30;;;;;;5042092;27;88878;-39
2022/11/26 14:39:01;;;;;;;;;;;4.80;74.50;;;;;;5042322;28;86438;-39